createdAt,value
2018-07-16T00:00:41.827Z,0.00
2018-07-16T00:01:42.304Z,0.00
2018-07-16T00:02:41.782Z,0.00
2018-07-16T00:03:41.753Z,0.00
2018-07-16T00:04:41.773Z,0.00
2018-07-16T00:05:42.311Z,0.00
2018-07-16T00:06:41.678Z,0.00
2018-07-16T00:07:42.303Z,0.00
2018-07-16T00:08:41.672Z,0.00
2018-07-16T00:09:41.602Z,0.00
2018-07-16T00:10:42.306Z,0.00
2018-07-16T00:11:41.552Z,0.00
2018-07-16T00:12:41.530Z,0.00
2018-07-16T00:13:41.564Z,0.00
2018-07-16T00:14:42.393Z,0.00
2018-07-16T00:15:41.496Z,0.00
2018-07-16T00:16:41.435Z,0.00
2018-07-16T00:17:42.308Z,0.00
2018-07-16T00:18:41.384Z,0.00
2018-07-16T00:19:41.407Z,0.00
2018-07-16T00:20:41.327Z,0.00
2018-07-16T00:21:41.301Z,0.00
2018-07-16T00:22:41.827Z,0.00
2018-07-16T00:23:41.300Z,0.00
2018-07-16T00:24:41.235Z,0.00
2018-07-16T00:25:41.878Z,0.00
2018-07-16T00:26:41.177Z,0.00
2018-07-16T00:27:41.812Z,0.00
2018-07-16T00:28:41.131Z,0.00
2018-07-16T00:29:41.100Z,0.00
2018-07-16T00:30:41.129Z,0.00
2018-07-16T00:31:41.815Z,0.00
2018-07-16T00:32:41.025Z,0.00
2018-07-16T00:33:41.003Z,0.00
2018-07-16T00:34:40.975Z,0.00
2018-07-16T00:35:41.373Z,0.00
2018-07-16T00:36:40.922Z,0.00
2018-07-16T00:37:41.365Z,0.00
2018-07-16T00:38:40.875Z,0.00
2018-07-16T00:39:40.853Z,0.00
2018-07-16T00:40:41.812Z,0.00
2018-07-16T00:41:40.842Z,0.00
2018-07-16T00:42:40.776Z,0.00
2018-07-16T00:43:40.751Z,0.00
2018-07-16T00:44:41.316Z,0.00
2018-07-16T00:45:40.700Z,0.00
2018-07-16T00:46:40.719Z,0.00
2018-07-16T00:47:40.694Z,0.00
2018-07-16T00:48:41.315Z,0.00
2018-07-16T00:49:40.604Z,0.00
2018-07-16T00:50:40.571Z,0.00
2018-07-16T00:51:41.310Z,0.00
2018-07-16T00:52:40.566Z,0.00
2018-07-16T00:53:40.868Z,0.00
2018-07-16T00:54:40.479Z,0.00
2018-07-16T00:55:40.462Z,0.00
2018-07-16T00:56:40.417Z,0.00
2018-07-16T00:57:40.867Z,0.00
2018-07-16T00:58:40.369Z,0.00
2018-07-16T00:59:40.338Z,0.00
2018-07-16T01:00:40.816Z,0.00
2018-07-16T01:01:40.292Z,0.00
2018-07-16T01:02:40.309Z,0.00
2018-07-16T01:03:40.816Z,0.00
2018-07-16T01:04:40.215Z,0.00
2018-07-16T01:05:40.187Z,0.00
2018-07-16T01:06:40.164Z,0.00
2018-07-16T01:07:40.374Z,0.00
2018-07-16T01:08:40.154Z,0.00
2018-07-16T01:09:40.087Z,0.00
2018-07-16T01:10:40.819Z,0.00
2018-07-16T01:11:40.035Z,0.00
2018-07-16T01:12:40.056Z,0.00
2018-07-16T01:13:39.981Z,0.00
2018-07-16T01:14:39.963Z,0.00
2018-07-16T01:15:39.970Z,0.00
2018-07-16T01:16:40.817Z,0.00
2018-07-16T01:17:39.877Z,0.00
2018-07-16T01:18:39.907Z,0.00
2018-07-16T01:19:39.874Z,0.00
2018-07-16T01:20:39.802Z,0.00
2018-07-16T01:21:40.318Z,0.00
2018-07-16T01:22:39.756Z,0.00
2018-07-16T01:23:39.723Z,0.00
2018-07-16T01:24:39.874Z,0.00
2018-07-16T01:25:39.672Z,0.00
2018-07-16T01:26:39.646Z,0.00
2018-07-16T01:27:40.320Z,0.00
2018-07-16T01:28:39.596Z,0.00
2018-07-16T01:29:39.623Z,0.00
2018-07-16T01:30:40.328Z,0.00
2018-07-16T01:31:39.556Z,0.00
2018-07-16T01:32:39.489Z,0.00
2018-07-16T01:33:39.461Z,0.00
2018-07-16T01:34:39.491Z,0.00
2018-07-16T01:35:40.323Z,0.00
2018-07-16T01:36:39.392Z,0.00
2018-07-16T01:37:39.359Z,0.00
2018-07-16T01:38:40.325Z,0.00
2018-07-16T01:39:39.363Z,0.00
2018-07-16T01:40:39.283Z,0.00
2018-07-16T01:41:39.259Z,0.00
2018-07-16T01:42:39.232Z,0.00
2018-07-16T01:43:39.827Z,0.00
2018-07-16T01:44:39.238Z,0.00
2018-07-16T01:45:39.823Z,0.00
2018-07-16T01:46:39.131Z,0.00
2018-07-16T01:47:39.100Z,0.00
2018-07-16T01:48:39.828Z,0.00
2018-07-16T01:49:39.090Z,0.00
2018-07-16T01:50:39.022Z,0.00
2018-07-16T01:51:39.828Z,0.00
2018-07-16T01:52:39.019Z,0.00
2018-07-16T01:53:38.951Z,0.00
2018-07-16T01:54:39.828Z,0.00
2018-07-16T01:55:38.895Z,0.00
2018-07-16T01:56:38.910Z,0.00
2018-07-16T01:57:38.844Z,0.00
2018-07-16T01:58:39.350Z,0.00
2018-07-16T01:59:38.789Z,0.00
2018-07-16T02:00:39.324Z,0.00
2018-07-16T02:01:38.781Z,0.00
2018-07-16T02:02:38.722Z,0.00
2018-07-16T02:03:39.324Z,0.00
2018-07-16T02:04:38.661Z,0.00
2018-07-16T02:05:38.633Z,0.00
2018-07-16T02:06:38.884Z,0.00
2018-07-16T02:07:38.585Z,0.00
2018-07-16T02:08:38.575Z,0.00
2018-07-16T02:09:39.328Z,0.00
2018-07-16T02:10:38.502Z,0.00
2018-07-16T02:11:38.519Z,0.00
2018-07-16T02:12:38.453Z,0.00
2018-07-16T02:13:38.425Z,0.00
2018-07-16T02:14:38.399Z,0.00
2018-07-16T02:15:39.339Z,0.00
2018-07-16T02:16:38.384Z,0.00
2018-07-16T02:17:38.355Z,0.00
2018-07-16T02:18:38.832Z,0.00
2018-07-16T02:19:38.265Z,0.00
2018-07-16T02:20:38.832Z,0.00
2018-07-16T02:21:38.264Z,0.00
2018-07-16T02:22:38.190Z,0.00
2018-07-16T02:23:38.832Z,0.00
2018-07-16T02:24:38.140Z,0.00
2018-07-16T02:25:38.169Z,0.00
2018-07-16T02:26:38.084Z,0.00
2018-07-16T02:27:38.834Z,0.00
2018-07-16T02:28:38.031Z,0.00
2018-07-16T02:29:38.006Z,0.00
2018-07-16T02:30:38.392Z,0.00
2018-07-16T02:31:37.955Z,0.00
2018-07-16T02:32:37.978Z,0.00
2018-07-16T02:33:37.901Z,0.00
2018-07-16T02:34:38.841Z,0.00
2018-07-16T02:35:37.858Z,0.00
2018-07-16T02:36:37.889Z,0.00
2018-07-16T02:37:37.800Z,0.00
2018-07-16T02:38:37.834Z,0.00
2018-07-16T02:39:37.748Z,0.00
2018-07-16T02:40:37.723Z,0.00
2018-07-16T02:41:37.691Z,0.00
2018-07-16T02:42:38.340Z,0.00
2018-07-16T02:43:37.695Z,0.00
2018-07-16T02:44:37.659Z,0.00
2018-07-16T02:45:37.590Z,0.00
2018-07-16T02:46:37.560Z,0.00
2018-07-16T02:47:38.338Z,0.00
2018-07-16T02:48:37.511Z,0.00
2018-07-16T02:49:37.535Z,5.63
2018-07-16T02:50:37.456Z,5.63
2018-07-16T02:51:38.334Z,5.63
2018-07-16T02:52:37.418Z,5.63
2018-07-16T02:53:37.391Z,5.63
2018-07-16T02:54:37.407Z,5.63
2018-07-16T02:55:37.848Z,5.63
2018-07-16T02:56:37.298Z,5.63
2018-07-16T02:57:37.839Z,11.25
2018-07-16T02:58:37.242Z,11.25
2018-07-16T02:59:37.260Z,11.25
2018-07-16T03:00:37.243Z,11.25
2018-07-16T03:01:37.847Z,11.25
2018-07-16T03:02:37.148Z,11.25
2018-07-16T03:03:37.841Z,16.88
2018-07-16T03:04:37.089Z,16.88
2018-07-16T03:05:37.105Z,16.88
2018-07-16T03:06:37.046Z,16.88
2018-07-16T03:07:37.008Z,22.50
2018-07-16T03:08:37.840Z,22.50
2018-07-16T03:09:36.953Z,22.50
2018-07-16T03:10:37.398Z,22.50
2018-07-16T03:11:36.899Z,28.13
2018-07-16T03:12:36.873Z,28.13
2018-07-16T03:13:36.856Z,28.13
2018-07-16T03:14:37.340Z,33.75
2018-07-16T03:15:36.858Z,33.75
2018-07-16T03:16:37.343Z,33.75
2018-07-16T03:17:36.742Z,39.38
2018-07-16T03:18:36.716Z,39.38
2018-07-16T03:19:37.342Z,39.38
2018-07-16T03:20:36.813Z,39.38
2018-07-16T03:21:36.636Z,45.00
2018-07-16T03:22:36.616Z,45.00
2018-07-16T03:23:36.589Z,45.00
2018-07-16T03:24:37.348Z,45.00
2018-07-16T03:25:36.583Z,50.63
2018-07-16T03:26:36.560Z,50.63
2018-07-16T03:27:36.524Z,50.63
2018-07-16T03:28:36.455Z,56.25
2018-07-16T03:29:36.428Z,61.88
2018-07-16T03:30:37.362Z,67.50
2018-07-16T03:31:36.371Z,67.50
2018-07-16T03:32:36.390Z,73.13
2018-07-16T03:33:36.328Z,78.75
2018-07-16T03:34:36.296Z,78.75
2018-07-16T03:35:36.416Z,84.38
2018-07-16T03:36:36.241Z,84.38
2018-07-16T03:37:36.214Z,90.00
2018-07-16T03:38:36.189Z,90.00
2018-07-16T03:39:36.846Z,95.63
2018-07-16T03:40:36.179Z,95.63
2018-07-16T03:41:36.109Z,101.25
2018-07-16T03:42:36.086Z,101.25
2018-07-16T03:43:36.398Z,106.88
2018-07-16T03:44:36.036Z,106.88
2018-07-16T03:45:36.003Z,112.50
2018-07-16T03:46:36.408Z,112.50
2018-07-16T03:47:35.950Z,118.13
2018-07-16T03:48:35.972Z,118.13
2018-07-16T03:49:36.848Z,123.75
2018-07-16T03:50:35.872Z,123.75
2018-07-16T03:51:35.905Z,129.38
2018-07-16T03:52:35.821Z,129.38
2018-07-16T03:53:35.793Z,129.38
2018-07-16T03:54:36.354Z,135.00
2018-07-16T03:55:35.792Z,140.63
2018-07-16T03:56:35.722Z,140.63
2018-07-16T03:57:36.364Z,146.25
2018-07-16T03:58:35.663Z,146.25
2018-07-16T03:59:35.641Z,146.25
2018-07-16T04:00:35.922Z,151.88
2018-07-16T04:01:35.655Z,151.88
2018-07-16T04:02:35.564Z,157.50
2018-07-16T04:03:35.531Z,157.50
2018-07-16T04:04:36.348Z,163.13
2018-07-16T04:05:35.535Z,168.75
2018-07-16T04:06:35.461Z,168.75
2018-07-16T04:07:35.431Z,174.38
2018-07-16T04:08:36.362Z,180.00
2018-07-16T04:09:35.383Z,185.63
2018-07-16T04:10:35.399Z,208.13
2018-07-16T04:11:35.379Z,213.75
2018-07-16T04:12:35.302Z,208.13
2018-07-16T04:13:35.280Z,230.63
2018-07-16T04:14:35.266Z,208.13
2018-07-16T04:15:35.855Z,185.63
2018-07-16T04:16:35.244Z,185.63
2018-07-16T04:17:35.171Z,185.63
2018-07-16T04:18:35.858Z,191.25
2018-07-16T04:19:35.125Z,191.25
2018-07-16T04:20:35.104Z,202.50
2018-07-16T04:21:35.114Z,213.75
2018-07-16T04:22:35.855Z,225.00
2018-07-16T04:23:35.023Z,230.63
2018-07-16T04:24:34.991Z,236.25
2018-07-16T04:25:35.861Z,258.75
2018-07-16T04:26:34.984Z,247.50
2018-07-16T04:27:34.960Z,258.75
2018-07-16T04:28:34.932Z,281.25
2018-07-16T04:29:35.854Z,331.88
2018-07-16T04:30:34.842Z,371.25
2018-07-16T04:31:34.816Z,315.00
2018-07-16T04:32:34.844Z,292.50
2018-07-16T04:33:34.766Z,286.88
2018-07-16T04:34:34.739Z,343.13
2018-07-16T04:35:35.368Z,416.25
2018-07-16T04:36:34.688Z,393.75
2018-07-16T04:37:34.930Z,264.38
2018-07-16T04:38:34.657Z,236.25
2018-07-16T04:39:35.358Z,230.63
2018-07-16T04:40:34.601Z,230.63
2018-07-16T04:41:34.565Z,230.63
2018-07-16T04:42:34.580Z,241.88
2018-07-16T04:43:34.572Z,258.75
2018-07-16T04:44:35.359Z,241.88
2018-07-16T04:45:34.461Z,241.88
2018-07-16T04:46:34.437Z,247.50
2018-07-16T04:47:34.912Z,253.13
2018-07-16T04:48:34.435Z,258.75
2018-07-16T04:49:34.406Z,253.13
2018-07-16T04:50:34.343Z,253.13
2018-07-16T04:51:34.868Z,253.13
2018-07-16T04:52:34.290Z,253.13
2018-07-16T04:53:34.264Z,258.75
2018-07-16T04:54:34.281Z,253.13
2018-07-16T04:55:34.862Z,258.75
2018-07-16T04:56:34.197Z,258.75
2018-07-16T04:57:34.872Z,258.75
2018-07-16T04:58:34.188Z,264.38
2018-07-16T04:59:34.120Z,258.75
2018-07-16T05:00:34.879Z,264.38
2018-07-16T05:01:34.108Z,264.38
2018-07-16T05:02:34.040Z,264.38
2018-07-16T05:03:34.067Z,270.00
2018-07-16T05:04:34.870Z,270.00
2018-07-16T05:05:33.967Z,270.00
2018-07-16T05:06:33.947Z,270.00
2018-07-16T05:07:33.957Z,275.63
2018-07-16T05:08:34.867Z,281.25
2018-07-16T05:09:33.916Z,281.25
2018-07-16T05:10:33.846Z,281.25
2018-07-16T05:11:33.822Z,286.88
2018-07-16T05:12:34.362Z,320.63
2018-07-16T05:13:33.797Z,399.38
2018-07-16T05:14:33.913Z,354.38
2018-07-16T05:15:33.723Z,292.50
2018-07-16T05:16:33.701Z,292.50
2018-07-16T05:17:34.363Z,292.50
2018-07-16T05:18:33.744Z,286.88
2018-07-16T05:19:33.674Z,286.88
2018-07-16T05:20:34.365Z,298.13
2018-07-16T05:21:33.627Z,292.50
2018-07-16T05:22:33.560Z,298.13
2018-07-16T05:23:33.532Z,298.13
2018-07-16T05:24:34.363Z,298.13
2018-07-16T05:25:33.485Z,303.75
2018-07-16T05:26:33.512Z,315.00
2018-07-16T05:27:33.480Z,320.63
2018-07-16T05:28:33.419Z,393.75
2018-07-16T05:29:34.366Z,562.50
2018-07-16T05:30:33.371Z,703.13
2018-07-16T05:31:33.904Z,568.13
2018-07-16T05:32:33.464Z,556.88
2018-07-16T05:33:33.297Z,517.50
2018-07-16T05:34:33.868Z,410.63
2018-07-16T05:35:33.248Z,663.75
2018-07-16T05:36:33.221Z,933.75
2018-07-16T05:37:33.427Z,607.50
2018-07-16T05:38:33.175Z,360.00
2018-07-16T05:39:33.156Z,331.88
2018-07-16T05:40:33.876Z,303.75
2018-07-16T05:41:33.107Z,315.00
2018-07-16T05:42:33.132Z,298.13
2018-07-16T05:43:33.102Z,298.13
2018-07-16T05:44:33.115Z,303.75
2018-07-16T05:45:33.018Z,303.75
2018-07-16T05:46:33.871Z,303.75
2018-07-16T05:47:32.972Z,309.38
2018-07-16T05:48:32.992Z,309.38
2018-07-16T05:49:33.874Z,303.75
2018-07-16T05:50:32.904Z,303.75
2018-07-16T05:51:33.877Z,303.75
2018-07-16T05:52:32.903Z,303.75
2018-07-16T05:53:32.880Z,303.75
2018-07-16T05:54:33.374Z,303.75
2018-07-16T05:55:32.794Z,303.75
2018-07-16T05:56:32.767Z,303.75
2018-07-16T05:57:32.944Z,303.75
2018-07-16T05:58:32.719Z,303.75
2018-07-16T05:59:33.378Z,309.38
2018-07-16T06:00:32.676Z,309.38
2018-07-16T06:01:33.373Z,309.38
2018-07-16T06:02:32.678Z,309.38
2018-07-16T06:03:32.653Z,309.38
2018-07-16T06:04:33.372Z,309.38
2018-07-16T06:05:32.559Z,309.38
2018-07-16T06:06:32.555Z,309.38
2018-07-16T06:07:33.379Z,309.38
2018-07-16T06:08:32.536Z,315.00
2018-07-16T06:09:32.517Z,309.38
2018-07-16T06:10:32.446Z,309.38
2018-07-16T06:11:32.435Z,309.38
2018-07-16T06:12:32.402Z,309.38
2018-07-16T06:13:32.380Z,309.38
2018-07-16T06:14:32.470Z,309.38
2018-07-16T06:15:32.337Z,309.38
2018-07-16T06:16:32.369Z,309.38
2018-07-16T06:17:32.883Z,309.38
2018-07-16T06:18:32.267Z,309.38
2018-07-16T06:19:32.245Z,315.00
2018-07-16T06:20:32.888Z,315.00
2018-07-16T06:21:32.249Z,315.00
2018-07-16T06:22:32.882Z,315.00
2018-07-16T06:23:32.156Z,315.00
2018-07-16T06:24:32.434Z,315.00
2018-07-16T06:25:32.110Z,315.00
2018-07-16T06:26:32.084Z,315.00
2018-07-16T06:27:32.068Z,315.00
2018-07-16T06:28:32.039Z,315.00
2018-07-16T06:29:32.455Z,320.63
2018-07-16T06:30:31.999Z,320.63
2018-07-16T06:31:32.439Z,320.63
2018-07-16T06:32:32.053Z,320.63
2018-07-16T06:33:31.931Z,320.63
2018-07-16T06:34:32.480Z,320.63
2018-07-16T06:35:31.884Z,320.63
2018-07-16T06:36:31.952Z,320.63
2018-07-16T06:37:31.843Z,320.63
2018-07-16T06:38:32.388Z,320.63
2018-07-16T06:39:31.824Z,320.63
2018-07-16T06:40:32.517Z,326.25
2018-07-16T06:41:32.138Z,326.25
2018-07-16T06:42:31.726Z,326.25
2018-07-16T06:43:31.709Z,326.25
2018-07-16T06:44:31.687Z,326.25
2018-07-16T06:45:31.658Z,326.25
2018-07-16T06:46:31.939Z,326.25
2018-07-16T06:47:31.617Z,320.63
2018-07-16T06:48:32.387Z,320.63
2018-07-16T06:49:31.622Z,320.63
2018-07-16T06:50:31.952Z,320.63
2018-07-16T06:51:31.525Z,320.63
2018-07-16T06:52:32.392Z,320.63
2018-07-16T06:53:31.481Z,320.63
2018-07-16T06:54:31.942Z,320.63
2018-07-16T06:55:31.438Z,320.63
2018-07-16T06:56:31.463Z,320.63
2018-07-16T06:57:31.450Z,320.63
2018-07-16T06:58:31.370Z,320.63
2018-07-16T06:59:31.892Z,320.63
2018-07-16T07:00:31.331Z,320.63
2018-07-16T07:01:31.304Z,326.25
2018-07-16T07:02:31.336Z,326.25
2018-07-16T07:03:31.889Z,326.25
2018-07-16T07:04:31.246Z,326.25
2018-07-16T07:05:31.443Z,326.25
2018-07-16T07:06:31.199Z,326.25
2018-07-16T07:07:31.456Z,326.25
2018-07-16T07:08:31.159Z,326.25
2018-07-16T07:09:31.890Z,326.25
2018-07-16T07:10:31.108Z,326.25
2018-07-16T07:11:31.085Z,326.25
2018-07-16T07:12:31.106Z,326.25
2018-07-16T07:13:31.050Z,326.25
2018-07-16T07:14:31.474Z,326.25
2018-07-16T07:15:30.997Z,331.88
2018-07-16T07:16:31.892Z,331.88
2018-07-16T07:17:30.953Z,331.88
2018-07-16T07:18:31.900Z,331.88
2018-07-16T07:19:30.956Z,331.88
2018-07-16T07:20:31.398Z,331.88
2018-07-16T07:21:30.869Z,331.88
2018-07-16T07:22:31.396Z,331.88
2018-07-16T07:23:30.824Z,337.50
2018-07-16T07:24:30.953Z,337.50
2018-07-16T07:25:30.930Z,337.50
2018-07-16T07:26:30.761Z,337.50
2018-07-16T07:27:30.738Z,337.50
2018-07-16T07:28:30.721Z,337.50
2018-07-16T07:29:30.950Z,331.88
2018-07-16T07:30:30.720Z,331.88
2018-07-16T07:31:31.396Z,331.88
2018-07-16T07:32:30.627Z,331.88
2018-07-16T07:33:31.399Z,326.25
2018-07-16T07:34:30.586Z,326.25
2018-07-16T07:35:30.975Z,326.25
2018-07-16T07:36:30.544Z,326.25
2018-07-16T07:37:31.405Z,326.25
2018-07-16T07:38:30.498Z,326.25
2018-07-16T07:39:30.957Z,326.25
2018-07-16T07:40:30.504Z,326.25
2018-07-16T07:41:31.403Z,326.25
2018-07-16T07:42:30.417Z,320.63
2018-07-16T07:43:30.393Z,320.63
2018-07-16T07:44:30.900Z,320.63
2018-07-16T07:45:30.407Z,320.63
2018-07-16T07:46:30.907Z,320.63
2018-07-16T07:47:30.329Z,320.63
2018-07-16T07:48:30.902Z,320.63
2018-07-16T07:49:30.267Z,320.63
2018-07-16T07:50:30.467Z,320.63
2018-07-16T07:51:30.238Z,320.63
2018-07-16T07:52:30.903Z,320.63
2018-07-16T07:53:30.182Z,320.63
2018-07-16T07:54:31.087Z,320.63
2018-07-16T07:55:30.247Z,320.63
2018-07-16T07:56:30.909Z,320.63
2018-07-16T07:57:30.099Z,320.63
2018-07-16T07:58:30.130Z,320.63
2018-07-16T07:59:30.907Z,320.63
2018-07-16T08:00:30.041Z,320.63
2018-07-16T08:01:30.908Z,320.63
2018-07-16T08:02:30.071Z,320.63
2018-07-16T08:03:30.904Z,320.63
2018-07-16T08:04:29.947Z,320.63
2018-07-16T08:05:30.906Z,320.63
2018-07-16T08:06:29.902Z,320.63
2018-07-16T08:07:29.947Z,320.63
2018-07-16T08:08:29.863Z,315.00
2018-07-16T08:09:29.841Z,315.00
2018-07-16T08:10:29.857Z,315.00
2018-07-16T08:11:29.796Z,315.00
2018-07-16T08:12:29.824Z,315.00
2018-07-16T08:13:29.752Z,315.00
2018-07-16T08:14:30.411Z,315.00
2018-07-16T08:15:29.712Z,315.00
2018-07-16T08:16:30.416Z,315.00
2018-07-16T08:17:31.447Z,315.00
2018-07-16T08:18:29.882Z,315.00
2018-07-16T08:19:30.543Z,315.00
2018-07-16T08:20:30.317Z,315.00
2018-07-16T08:21:30.416Z,315.00
2018-07-16T08:22:29.599Z,315.00
2018-07-16T08:23:29.548Z,315.00
2018-07-16T08:24:30.416Z,315.00
2018-07-16T08:25:29.510Z,320.63
2018-07-16T08:26:29.481Z,315.00
2018-07-16T08:27:30.421Z,315.00
2018-07-16T08:28:29.478Z,315.00
2018-07-16T08:29:29.471Z,315.00
2018-07-16T08:30:29.410Z,315.00
2018-07-16T08:31:29.380Z,315.00
2018-07-16T08:32:29.914Z,315.00
2018-07-16T08:33:29.384Z,315.00
2018-07-16T08:34:29.920Z,315.00
2018-07-16T08:35:29.341Z,315.00
2018-07-16T08:36:29.915Z,315.00
2018-07-16T08:37:29.253Z,320.63
2018-07-16T08:38:29.230Z,326.25
2018-07-16T08:39:29.468Z,326.25
2018-07-16T08:40:29.202Z,326.25
2018-07-16T08:41:29.929Z,320.63
2018-07-16T08:42:29.151Z,315.00
2018-07-16T08:43:29.134Z,309.38
2018-07-16T08:44:29.488Z,292.50
2018-07-16T08:45:29.090Z,309.38
2018-07-16T08:46:29.069Z,303.75
2018-07-16T08:47:29.917Z,292.50
2018-07-16T08:48:29.025Z,303.75
2018-07-16T08:49:29.488Z,326.25
2018-07-16T08:50:29.071Z,320.63
2018-07-16T08:51:29.918Z,320.63
2018-07-16T08:52:28.948Z,326.25
2018-07-16T08:53:29.420Z,343.13
2018-07-16T08:54:28.954Z,337.50
2018-07-16T08:55:29.428Z,354.38
2018-07-16T08:56:28.866Z,382.50
2018-07-16T08:57:29.434Z,388.13
2018-07-16T08:58:28.824Z,410.63
2018-07-16T08:59:28.981Z,444.38
2018-07-16T09:00:28.783Z,472.50
2018-07-16T09:01:28.803Z,489.38
2018-07-16T09:02:28.738Z,489.38
2018-07-16T09:03:29.427Z,461.25
2018-07-16T09:04:28.696Z,438.75
2018-07-16T09:05:28.674Z,416.25
2018-07-16T09:06:28.702Z,416.25
2018-07-16T09:07:29.424Z,421.88
2018-07-16T09:08:28.615Z,388.13
2018-07-16T09:09:28.601Z,354.38
2018-07-16T09:10:29.427Z,315.00
2018-07-16T09:11:28.606Z,298.13
2018-07-16T09:12:29.424Z,309.38
2018-07-16T09:13:28.745Z,320.63
2018-07-16T09:14:29.427Z,343.13
2018-07-16T09:15:28.478Z,348.75
2018-07-16T09:16:28.507Z,348.75
2018-07-16T09:17:29.430Z,348.75
2018-07-16T09:18:28.416Z,354.38
2018-07-16T09:19:28.401Z,354.38
2018-07-16T09:20:28.927Z,360.00
2018-07-16T09:21:28.411Z,337.50
2018-07-16T09:22:28.352Z,360.00
2018-07-16T09:23:28.928Z,354.38
2018-07-16T09:24:28.297Z,337.50
2018-07-16T09:25:28.307Z,337.50
2018-07-16T09:26:28.483Z,343.13
2018-07-16T09:27:28.279Z,343.13
2018-07-16T09:28:28.215Z,337.50
2018-07-16T09:29:28.927Z,331.88
2018-07-16T09:30:28.178Z,331.88
2018-07-16T09:31:28.173Z,320.63
2018-07-16T09:32:28.498Z,315.00
2018-07-16T09:33:28.123Z,320.63
2018-07-16T09:34:28.932Z,326.25
2018-07-16T09:35:28.078Z,331.88
2018-07-16T09:36:28.055Z,343.13
2018-07-16T09:37:28.486Z,348.75
2018-07-16T09:38:28.064Z,348.75
2018-07-16T09:39:27.994Z,337.50
2018-07-16T09:40:27.973Z,331.88
2018-07-16T09:41:27.952Z,320.63
2018-07-16T09:42:27.932Z,315.00
2018-07-16T09:43:27.954Z,309.38
2018-07-16T09:44:27.969Z,309.38
2018-07-16T09:45:28.433Z,309.38
2018-07-16T09:46:27.854Z,309.38
2018-07-16T09:47:28.436Z,320.63
2018-07-16T09:48:27.853Z,331.88
2018-07-16T09:49:27.837Z,360.00
2018-07-16T09:50:27.997Z,382.50
2018-07-16T09:51:27.754Z,399.38
2018-07-16T09:52:28.437Z,399.38
2018-07-16T09:53:27.715Z,376.88
2018-07-16T09:54:27.695Z,360.00
2018-07-16T09:55:27.989Z,343.13
2018-07-16T09:56:27.704Z,337.50
2018-07-16T09:57:27.635Z,343.13
2018-07-16T09:58:27.617Z,337.50
2018-07-16T09:59:28.436Z,326.25
2018-07-16T10:00:27.627Z,320.63
2018-07-16T10:01:27.997Z,315.00
2018-07-16T10:02:27.541Z,320.63
2018-07-16T10:03:27.521Z,337.50
2018-07-16T10:04:27.498Z,343.13
2018-07-16T10:05:27.995Z,348.75
2018-07-16T10:06:27.498Z,348.75
2018-07-16T10:07:27.444Z,354.38
2018-07-16T10:08:27.497Z,360.00
2018-07-16T10:09:27.940Z,354.38
2018-07-16T10:10:27.382Z,348.75
2018-07-16T10:11:27.404Z,343.13
2018-07-16T10:12:27.347Z,343.13
2018-07-16T10:13:27.369Z,343.13
2018-07-16T10:14:27.305Z,348.75
2018-07-16T10:15:27.298Z,337.50
2018-07-16T10:16:27.310Z,337.50
2018-07-16T10:17:27.249Z,337.50
2018-07-16T10:18:27.227Z,315.00
2018-07-16T10:19:27.211Z,326.25
2018-07-16T10:20:27.222Z,292.50
2018-07-16T10:21:27.212Z,292.50
2018-07-16T10:22:27.193Z,298.13
2018-07-16T10:23:27.131Z,309.38
2018-07-16T10:24:27.113Z,320.63
2018-07-16T10:25:27.094Z,337.50
2018-07-16T10:26:27.117Z,320.63
2018-07-16T10:27:27.096Z,309.38
2018-07-16T10:28:27.033Z,298.13
2018-07-16T10:29:27.016Z,298.13
2018-07-16T10:30:26.992Z,315.00
2018-07-16T10:31:26.978Z,320.63
2018-07-16T10:32:27.020Z,309.38
2018-07-16T10:33:26.939Z,326.25
2018-07-16T10:34:26.919Z,331.88
2018-07-16T10:35:26.905Z,337.50
2018-07-16T10:36:26.878Z,348.75
2018-07-16T10:37:26.903Z,348.75
2018-07-16T10:38:26.840Z,337.50
2018-07-16T10:39:26.849Z,326.25
2018-07-16T10:40:26.803Z,320.63
2018-07-16T10:41:26.781Z,326.25
2018-07-16T10:42:26.809Z,309.38
2018-07-16T10:43:26.789Z,303.75
2018-07-16T10:44:26.773Z,286.88
2018-07-16T10:45:26.706Z,253.13
2018-07-16T10:46:26.688Z,253.13
2018-07-16T10:47:26.669Z,258.75
2018-07-16T10:48:26.701Z,264.38
2018-07-16T10:49:26.626Z,264.38
2018-07-16T10:50:26.606Z,253.13
2018-07-16T10:51:26.589Z,281.25
2018-07-16T10:52:26.572Z,298.13
2018-07-16T10:53:26.592Z,298.13
2018-07-16T10:54:27.004Z,303.75
2018-07-16T10:55:26.554Z,303.75
2018-07-16T10:56:26.497Z,303.75
2018-07-16T10:57:26.473Z,309.38
2018-07-16T10:58:26.466Z,331.88
2018-07-16T10:59:26.441Z,354.38
2018-07-16T11:00:26.454Z,371.25
2018-07-16T11:01:26.469Z,365.63
2018-07-16T11:02:26.389Z,376.88
2018-07-16T11:03:26.358Z,376.88
2018-07-16T11:04:26.364Z,371.25
2018-07-16T11:05:26.441Z,371.25
2018-07-16T11:06:26.299Z,371.25
2018-07-16T11:07:26.323Z,360.00
2018-07-16T11:08:26.260Z,348.75
2018-07-16T11:09:26.241Z,343.13
2018-07-16T11:10:26.241Z,354.38
2018-07-16T11:11:26.248Z,348.75
2018-07-16T11:12:26.211Z,354.38
2018-07-16T11:13:26.170Z,354.38
2018-07-16T11:14:26.151Z,348.75
2018-07-16T11:15:26.130Z,343.13
2018-07-16T11:16:26.155Z,326.25
2018-07-16T11:17:26.089Z,331.88
2018-07-16T11:18:26.071Z,326.25
2018-07-16T11:19:26.058Z,331.88
2018-07-16T11:20:26.033Z,343.13
2018-07-16T11:21:26.059Z,337.50
2018-07-16T11:22:26.139Z,326.25
2018-07-16T11:23:25.981Z,343.13
2018-07-16T11:24:25.966Z,348.75
2018-07-16T11:25:25.937Z,348.75
2018-07-16T11:26:25.927Z,360.00
2018-07-16T11:27:25.947Z,371.25
2018-07-16T11:28:25.893Z,376.88
2018-07-16T11:29:25.919Z,371.25
2018-07-16T11:30:25.848Z,348.75
2018-07-16T11:31:25.824Z,326.25
2018-07-16T11:32:26.469Z,309.38
2018-07-16T11:33:25.792Z,309.38
2018-07-16T11:34:25.816Z,326.25
2018-07-16T11:35:25.780Z,354.38
2018-07-16T11:36:25.731Z,393.75
2018-07-16T11:37:25.715Z,399.38
2018-07-16T11:38:25.753Z,416.25
2018-07-16T11:39:25.677Z,416.25
2018-07-16T11:40:25.655Z,405.00
2018-07-16T11:41:25.636Z,399.38
2018-07-16T11:42:26.477Z,382.50
2018-07-16T11:43:25.662Z,365.63
2018-07-16T11:44:25.585Z,365.63
2018-07-16T11:45:25.570Z,371.25
2018-07-16T11:46:25.549Z,388.13
2018-07-16T11:47:26.476Z,405.00
2018-07-16T11:48:25.562Z,388.13
2018-07-16T11:49:25.494Z,365.63
2018-07-16T11:50:25.473Z,337.50
2018-07-16T11:51:25.498Z,326.25
2018-07-16T11:52:25.971Z,315.00
2018-07-16T11:53:25.422Z,315.00
2018-07-16T11:54:25.402Z,315.00
2018-07-16T11:55:25.380Z,309.38
2018-07-16T11:56:25.539Z,298.13
2018-07-16T11:57:25.974Z,298.13
2018-07-16T11:58:25.325Z,298.13
2018-07-16T11:59:28.607Z,275.63
2018-07-16T12:00:25.298Z,270.00
2018-07-16T12:01:27.387Z,258.75
2018-07-16T12:02:26.010Z,270.00
2018-07-16T12:03:25.262Z,281.25
2018-07-16T12:04:25.928Z,286.88
2018-07-16T12:05:25.237Z,275.63
2018-07-16T12:06:25.198Z,281.25
2018-07-16T12:07:25.188Z,281.25
2018-07-16T12:08:25.884Z,281.25
2018-07-16T12:09:25.207Z,275.63
2018-07-16T12:10:25.109Z,236.25
2018-07-16T12:11:25.885Z,236.25
2018-07-16T12:12:25.143Z,241.88
2018-07-16T12:13:25.978Z,281.25
2018-07-16T12:14:25.077Z,253.13
2018-07-16T12:15:25.014Z,270.00
2018-07-16T12:16:25.060Z,270.00
2018-07-16T12:17:24.976Z,286.88
2018-07-16T12:18:25.521Z,298.13
2018-07-16T12:19:24.940Z,298.13
2018-07-16T12:20:24.989Z,292.50
2018-07-16T12:21:24.902Z,286.88
2018-07-16T12:22:24.892Z,286.88
2018-07-16T12:23:24.908Z,286.88
2018-07-16T12:24:24.849Z,286.88
2018-07-16T12:25:24.826Z,286.88
2018-07-16T12:26:24.820Z,286.88
2018-07-16T12:27:24.828Z,286.88
2018-07-16T12:28:24.792Z,281.25
2018-07-16T12:29:25.043Z,275.63
2018-07-16T12:30:24.775Z,275.63
2018-07-16T12:31:24.717Z,270.00
2018-07-16T12:32:24.753Z,270.00
2018-07-16T12:33:24.680Z,270.00
2018-07-16T12:34:24.663Z,275.63
2018-07-16T12:35:24.646Z,275.63
2018-07-16T12:36:24.623Z,275.63
2018-07-16T12:37:24.650Z,275.63
2018-07-16T12:38:25.485Z,275.63
2018-07-16T12:39:24.565Z,275.63
2018-07-16T12:40:24.550Z,275.63